Time;durP1;ratioP1;P1;durP2;ratioP2;P2;SDS_P1;SDS_P2;PMS_P1;PMS_P2;Temp;Humidity;BMP_temperature;BMP_pressure;BME280_temperature;BME280_humidity;BME280_pressure;Samples;Min_cycle;Max_cycle;Signal;HPM_P1;HPM_P2
2021/07/27 05:01:23;;;;;;;7.57;3.30;;;;;;;29.14;41.65;95197.56;5661836;22;20108;-88
2021/07/27 05:03:49;;;;;;;6.32;2.83;;;;;;;28.44;43.27;95199.66;5011063;28;20037;-87
2021/07/27 05:06:23;;;;;;;2.85;2.30;;;;;;;30.14;40.10;95205.59;5030577;28;20021;-88
2021/07/27 05:08:49;;;;;;;3.78;2.40;;;;;;;29.76;39.66;95205.47;4994673;28;20037;-88
2021/07/27 05:11:14;;;;;;;4.15;2.40;;;;;;;29.87;40.48;95200.84;4997126;28;20104;-87
2021/07/27 05:13:40;;;;;;;2.78;2.47;;;;;;;31.36;37.54;95205.41;4995583;28;20087;-86
2021/07/27 05:16:11;;;;;;;3.72;2.50;;;;;;;30.95;36.74;95209.81;5012251;28;20029;-88
2021/07/27 05:18:37;;;;;;;2.97;2.40;;;;;;;32.22;35.09;95209.16;5030351;28;20030;-88
2021/07/27 05:21:02;;;;;;;3.97;2.25;;;;;;;32.13;34.73;95208.28;5010494;28;20558;-89
2021/07/27 05:23:28;;;;;;;3.30;2.15;;;;;;;32.16;34.16;95207.69;4997565;28;20091;-88
2021/07/27 05:25:54;;;;;;;5.10;2.28;;;;;;;32.08;34.62;95205.69;5006758;28;20026;-88
2021/07/27 05:28:19;;;;;;;3.85;2.30;;;;;;;32.82;35.64;95198.97;4992234;28;20036;-88
2021/07/27 05:30:44;;;;;;;2.75;2.00;;;;;;;31.74;35.88;95209.53;5014591;28;20029;-89
2021/07/27 05:33:11;;;;;;;4.75;2.22;;;;;;;32.93;34.27;95210.28;4993379;28;20463;-88
2021/07/27 05:35:36;;;;;;;8.70;2.42;;;;;;;34.12;33.92;95212.06;4993230;28;20022;-87
2021/07/27 05:38:03;;;;;;;3.03;1.95;;;;;;;34.89;31.36;95218.38;5010131;28;20108;-88
2021/07/27 05:40:31;;;;;;;3.08;2.22;;;;;;;35.26;30.30;95218.81;4977063;28;20029;-88
2021/07/27 05:42:59;;;;;;;3.35;2.10;;;;;;;34.91;31.76;95234.22;4975897;28;20037;-87
2021/07/27 05:45:25;;;;;;;8.90;2.25;;;;;;;34.21;31.89;95237.09;4977069;28;20518;-87
2021/07/27 05:47:51;;;;;;;7.85;2.28;;;;;;;34.50;29.58;95237.31;4991208;28;20022;-87
2021/07/27 05:50:18;;;;;;;4.32;2.10;;;;;;;35.58;29.51;95239.88;4976709;28;20030;-87
2021/07/27 05:52:44;;;;;;;2.17;1.73;;;;;;;34.69;29.49;95235.16;5008408;28;20469;-87
2021/07/27 05:55:09;;;;;;;3.50;2.22;;;;;;;34.83;28.99;95222.34;4959222;28;20029;-86
2021/07/27 05:57:35;;;;;;;7.13;2.08;;;;;;;34.85;29.46;95228.19;4992777;28;20030;-87
2021/07/27 06:00:00;;;;;;;4.57;2.20;;;;;;;35.86;27.82;95224.09;5014759;28;20025;-87
2021/07/27 06:02:26;;;;;;;5.13;2.17;;;;;;;36.03;27.57;95228.63;4978419;28;20107;-84
2021/07/27 06:04:52;;;;;;;4.75;2.10;;;;;;;36.01;27.85;95222.75;5025854;28;20026;-87
2021/07/27 06:07:17;;;;;;;3.55;2.35;;;;;;;36.84;28.43;95231.81;5028375;28;20021;-87
2021/07/27 06:09:42;;;;;;;3.45;2.60;;;;;;;38.17;25.89;95226.03;5025763;28;20490;-86
2021/07/27 06:12:09;;;;;;;2.58;2.10;;;;;;;36.75;26.01;95228.38;5011173;28;20030;-86
2021/07/27 06:14:34;;;;;;;4.05;2.28;;;;;;;38.65;25.20;95228.72;4994934;28;20029;-87
2021/07/27 06:17:00;;;;;;;4.93;2.33;;;;;;;37.33;25.57;95225.53;5010695;28;20059;-88
2021/07/27 06:19:25;;;;;;;3.65;2.78;;;;;;;37.43;24.97;95230.53;5012225;28;20034;-86
2021/07/27 06:21:51;;;;;;;1.95;1.85;;;;;;;36.74;26.52;95222.19;5009636;28;20112;-88
2021/07/27 06:24:17;;;;;;;4.55;2.10;;;;;;;38.39;25.07;95225.59;4994699;28;20029;-87
2021/07/27 06:26:42;;;;;;;3.28;1.95;;;;;;;37.80;26.62;95225.97;5009912;28;20054;-88
2021/07/27 06:29:08;;;;;;;2.58;2.38;;;;;;;37.56;25.75;95214.34;5011433;28;20100;-87
2021/07/27 06:31:34;;;;;;;3.88;2.00;;;;;;;38.24;24.89;95221.66;5010361;28;20116;-86
2021/07/27 06:34:00;;;;;;;3.47;2.13;;;;;;;38.37;23.83;95211.63;4994102;28;20025;-85
2021/07/27 06:36:27;;;;;;;4.07;2.22;;;;;;;37.59;24.27;95202.84;5028847;28;20437;-84
2021/07/27 06:38:52;;;;;;;3.08;2.20;;;;;;;38.18;24.50;95209.44;4993181;28;20495;-83
2021/07/27 06:41:18;;;;;;;2.60;2.10;;;;;;;37.71;24.27;95206.38;5010744;28;20033;-82
2021/07/27 06:43:43;;;;;;;2.80;1.98;;;;;;;37.97;24.07;95197.94;5009233;28;20150;-86
2021/07/27 06:46:09;;;;;;;18.17;2.60;;;;;;;35.20;27.71;95193.94;4994626;28;20021;-88
2021/07/27 06:48:34;;;;;;;2.65;2.10;;;;;;;37.22;24.93;95199.22;5024870;28;20029;-83
2021/07/27 06:51:18;;;;;;;3.33;1.92;;;;;;;36.35;25.72;95192.88;4992634;28;20022;-85
2021/07/27 06:53:44;;;;;;;4.55;2.70;;;;;;;35.81;26.80;95192.69;4978953;28;20096;-87
2021/07/27 06:56:09;;;;;;;4.25;2.45;;;;;;;39.22;24.12;95189.69;4966825;28;20502;-86
2021/07/27 06:58:35;;;;;;;2.42;2.17;;;;;;;37.36;25.65;95191.63;5003966;28;20045;-85
2021/07/27 07:01:02;;;;;;;4.32;2.30;;;;;;;37.81;25.23;95195.09;4992872;28;20053;-86
2021/07/27 07:03:28;;;;;;;3.35;2.33;;;;;;;32.91;31.69;95189.13;5002426;28;20474;-84
2021/07/27 07:05:53;;;;;;;3.67;2.60;;;;;;;33.01;31.74;95186.16;4993536;28;20109;-88
2021/07/27 07:08:19;;;;;;;3.60;2.60;;;;;;;32.52;33.56;95188.94;5010947;28;20033;-85
2021/07/27 07:10:44;;;;;;;4.07;2.53;;;;;;;33.08;32.20;95180.34;5017647;28;20509;-86
2021/07/27 07:13:09;;;;;;;17.13;2.80;;;;;;;31.71;31.61;95186.03;4974146;28;20065;-86
2021/07/27 07:15:35;;;;;;;4.60;2.40;;;;;;;32.98;31.63;95191.34;4991448;28;20026;-84
2021/07/27 07:18:00;;;;;;;3.85;2.45;;;;;;;37.26;26.78;95194.72;4957409;28;20038;-87
2021/07/27 07:20:27;;;;;;;2.28;2.13;;;;;;;38.03;25.93;95196.59;4991591;28;20426;-85
2021/07/27 07:22:52;;;;;;;3.58;2.38;;;;;;;38.88;25.03;95189.19;4989765;28;20026;-85
2021/07/27 07:25:18;;;;;;;2.58;2.15;;;;;;;38.78;25.08;95189.63;4990916;28;20072;-84
2021/07/27 07:27:43;;;;;;;5.20;2.58;;;;;;;38.04;25.34;95181.16;4989706;28;20138;-85
2021/07/27 07:30:09;;;;;;;2.25;2.05;;;;;;;36.05;27.44;95188.59;4990676;28;20038;-85
2021/07/27 07:32:35;;;;;;;5.07;2.30;;;;;;;33.08;31.99;95183.84;4974589;28;20112;-86
2021/07/27 07:35:02;;;;;;;2.67;2.40;;;;;;;31.69;33.48;95180.16;4989512;28;20529;-85
2021/07/27 07:37:28;;;;;;;2.92;2.50;;;;;;;32.45;34.77;95181.28;5008212;28;20026;-83
2021/07/27 07:39:53;;;;;;;3.08;2.33;;;;;;;32.63;33.16;95177.69;5006626;28;20034;-85
2021/07/27 07:42:19;;;;;;;2.97;2.60;;;;;;;32.28;34.43;95178.44;4990652;28;20026;-85
2021/07/27 07:44:45;;;;;;;5.53;2.45;;;;;;;32.86;33.19;95178.47;4974321;28;20101;-84
2021/07/27 07:47:11;;;;;;;6.30;2.28;;;;;;;32.94;34.18;95179.66;5011615;28;20493;-84
2021/07/27 07:49:37;;;;;;;2.40;2.30;;;;;;;33.04;32.41;95182.09;4978023;28;20455;-86
2021/07/27 07:52:02;;;;;;;5.85;2.90;;;;;;;29.80;37.59;95184.31;4977712;28;20053;-85
2021/07/27 07:54:30;;;;;;;4.97;2.67;;;;;;;31.10;36.02;95175.59;4975096;28;20325;-90
2021/07/27 07:56:56;;;;;;;2.30;2.10;;;;;;;32.31;33.77;95188.56;4999020;28;20431;-85
2021/07/27 07:59:21;;;;;;;6.53;2.90;;;;;;;31.75;35.10;95175.50;4966875;28;20592;-82
2021/07/27 08:01:55;;;;;;;2.40;2.20;;;;;;;32.61;34.26;95174.50;4953950;28;20074;-86
2021/07/27 08:04:21;;;;;;;3.05;2.75;;;;;;;33.08;33.29;95183.03;4959484;28;20026;-87
2021/07/27 08:06:46;;;;;;;8.07;3.30;;;;;;;31.62;34.63;95177.09;4997821;28;20025;-87
2021/07/27 08:09:12;;;;;;;4.10;2.88;;;;;;;31.44;36.77;95175.25;5008183;28;20096;-85
2021/07/27 08:11:40;;;;;;;4.97;2.65;;;;;;;32.84;33.99;95160.00;5010505;28;20029;-85
2021/07/27 08:14:06;;;;;;;3.15;2.83;;;;;;;32.74;35.49;95173.66;4991739;28;20048;-87
2021/07/27 08:16:31;;;;;;;4.95;3.28;;;;;;;33.23;34.40;95177.34;4976012;28;20483;-86
2021/07/27 08:18:57;;;;;;;8.10;3.17;;;;;;;33.20;34.41;95178.72;4994605;28;20021;-87
2021/07/27 08:21:24;;;;;;;3.10;2.80;;;;;;;32.98;36.94;95169.84;4995209;28;20520;-86
2021/07/27 08:23:49;;;;;;;3.33;2.85;;;;;;;33.32;34.39;95170.91;4995657;28;20044;-86
2021/07/27 08:26:15;;;;;;;6.55;3.58;;;;;;;32.46;33.82;95163.31;5011568;28;20030;-85
2021/07/27 08:28:42;;;;;;;3.67;3.30;;;;;;;33.83;33.40;95174.94;5012217;28;20068;-88
2021/07/27 08:31:08;;;;;;;5.03;3.58;;;;;;;30.90;35.44;95178.56;5011536;28;20052;-88
2021/07/27 08:33:33;;;;;;;7.90;4.50;;;;;;;29.93;37.29;95172.97;5011726;28;20480;-84
2021/07/27 08:35:59;;;;;;;5.88;4.38;;;;;;;30.73;36.46;95170.28;4989426;28;20030;-89
2021/07/27 08:38:24;;;;;;;4.28;3.88;;;;;;;31.80;37.05;95167.34;5005989;28;20056;-85
2021/07/27 08:40:50;;;;;;;5.68;3.38;;;;;;;32.54;36.64;95168.72;5008887;28;20022;-87
2021/07/27 08:43:16;;;;;;;4.78;3.15;;;;;;;33.08;35.88;95175.78;4978300;28;20422;-86
2021/07/27 08:45:42;;;;;;;6.32;3.85;;;;;;;32.61;33.86;95163.78;4991519;28;20482;-86
2021/07/27 08:48:08;;;;;;;4.05;3.72;;;;;;;31.73;34.33;95173.09;4975882;28;20379;-87
2021/07/27 08:50:33;;;;;;;4.75;3.70;;;;;;;32.09;34.83;95167.84;4976034;28;20102;-82
2021/07/27 08:53:00;;;;;;;3.95;3.40;;;;;;;32.95;34.71;95165.91;4974635;28;20057;-85
2021/07/27 08:55:25;;;;;;;3.75;3.40;;;;;;;32.44;34.73;95162.78;5008696;28;20206;-85
2021/07/27 08:57:57;;;;;;;6.10;3.97;;;;;;;32.22;35.29;95164.34;4975089;28;20030;-86
2021/07/27 09:00:24;;;;;;;7.65;4.20;;;;;;;32.27;34.83;95164.22;5011558;28;20617;-90
2021/07/27 09:02:49;;;;;;;4.28;3.97;;;;;;;32.08;35.10;95157.41;5009722;28;20021;-86
2021/07/27 09:05:15;;;;;;;5.55;3.67;;;;;;;32.35;34.97;95162.72;4992969;28;20080;-88
2021/07/27 09:07:40;;;;;;;5.78;4.07;;;;;;;31.77;36.14;95159.91;4995022;28;20449;-89
2021/07/27 09:10:20;;;;;;;6.60;4.20;;;;;;;30.73;36.91;95160.38;4971359;28;20079;-90
2021/07/27 09:12:52;;;;;;;6.82;4.03;;;;;;;32.28;36.99;95151.63;5003321;28;20030;-89
2021/07/27 09:15:18;;;;;;;5.97;3.83;;;;;;;32.77;35.55;95161.53;5000823;28;20025;-87
2021/07/27 09:17:54;;;;;;;8.38;4.50;;;;;;;33.33;35.51;95167.09;4993765;28;20406;-86
2021/07/27 09:20:27;;;;;;;4.88;4.40;;;;;;;32.14;35.95;95166.97;4990977;28;20030;-89
2021/07/27 09:22:52;;;;;;;5.45;4.47;;;;;;;32.28;36.55;95156.97;4971170;28;20030;-86
2021/07/27 09:25:17;;;;;;;6.78;4.50;;;;;;;32.20;36.53;95158.50;4966513;28;20041;-87
2021/07/27 09:27:43;;;;;;;7.80;4.15;;;;;;;33.04;34.63;95161.38;4986431;28;20030;-86
2021/07/27 09:30:09;;;;;;;9.45;4.50;;;;;;;32.56;34.87;95146.97;4982903;28;20033;-86
2021/07/27 09:32:34;;;;;;;22.40;5.88;;;;;;;32.74;35.83;95146.81;4959487;28;20539;-88
2021/07/27 09:35:06;;;;;;;4.80;4.13;;;;;;;33.03;35.13;95146.38;4961751;28;20033;-86
2021/07/27 09:37:31;;;;;;;5.65;4.65;;;;;;;32.81;34.47;95144.50;4988942;28;20037;-84
2021/07/27 09:40:07;;;;;;;6.35;4.40;;;;;;;33.30;34.72;95148.91;4986404;28;20502;-85
2021/07/27 09:42:33;;;;;;;7.40;4.53;;;;;;;33.69;34.71;95144.66;4992052;28;20037;-85
2021/07/27 09:44:58;;;;;;;6.97;4.30;;;;;;;33.52;34.25;95145.41;4971657;28;20464;-85
2021/07/27 09:47:24;;;;;;;5.45;4.68;;;;;;;34.18;34.31;95144.34;4975517;28;20021;-85
2021/07/27 09:49:49;;;;;;;8.65;4.20;;;;;;;33.72;33.94;95147.53;4973193;28;20042;-85
2021/07/27 09:52:15;;;;;;;8.73;4.68;;;;;;;33.10;34.90;95138.72;4955737;28;20035;-85
2021/07/27 09:54:40;;;;;;;5.68;4.97;;;;;;;33.19;34.39;95138.75;4981825;28;20034;-86
2021/07/27 09:57:06;;;;;;;8.95;5.13;;;;;;;33.50;35.53;95138.72;4994022;28;20520;-84
2021/07/27 09:59:31;;;;;;;5.47;4.97;;;;;;;33.44;34.42;95139.97;4989734;28;20434;-84
2021/07/27 10:01:59;;;;;;;7.55;5.28;;;;;;;32.96;35.66;95135.28;5008282;28;20046;-83
2021/07/27 10:04:34;;;;;;;6.95;5.15;;;;;;;33.06;35.10;95142.28;4962623;28;20495;-84
2021/07/27 10:06:59;;;;;;;6.53;5.00;;;;;;;33.30;36.13;95132.00;5002911;28;20044;-84
2021/07/27 10:09:26;;;;;;;4.97;4.57;;;;;;;33.23;35.37;95134.34;5021104;28;20025;-87
2021/07/27 10:11:52;;;;;;;5.90;5.30;;;;;;;33.12;34.95;95128.44;5004914;28;20022;-85
2021/07/27 10:14:17;;;;;;;6.78;5.43;;;;;;;32.65;35.54;95129.06;5009520;28;20057;-82
2021/07/27 10:16:44;;;;;;;12.45;6.53;;;;;;;32.46;35.44;95117.69;4989950;28;20029;-86
2021/07/27 10:19:22;;;;;;;11.27;6.18;;;;;;;32.20;35.92;95114.81;4989632;28;20072;-84
2021/07/27 10:22:08;;;;;;;6.85;5.93;;;;;;;32.67;36.26;95122.28;4955121;28;20112;-84
2021/07/27 10:24:41;;;;;;;6.85;5.45;;;;;;;33.12;35.26;95116.91;4969712;28;20041;-85
2021/07/27 10:27:09;;;;;;;9.65;6.32;;;;;;;33.16;34.83;95112.50;4998632;28;20117;-84
2021/07/27 10:29:34;;;;;;;8.02;5.20;;;;;;;33.42;37.73;95115.31;4980488;28;20487;-87
2021/07/27 10:32:10;;;;;;;12.10;5.65;;;;;;;34.09;36.68;95107.75;4977493;28;20056;-84
2021/07/27 10:34:36;;;;;;;8.40;6.90;;;;;;;33.54;34.03;95118.19;4972151;28;20029;-85
2021/07/27 10:37:08;;;;;;;11.70;6.40;;;;;;;32.70;35.56;95110.94;5025701;28;20420;-85
2021/07/27 10:39:44;;;;;;;7.00;5.78;;;;;;;33.75;36.03;95111.16;4993337;28;20489;-82
2021/07/27 10:42:09;;;;;;;7.50;5.97;;;;;;;33.84;35.69;95109.31;4993876;28;20057;-85
2021/07/27 10:44:36;;;;;;;9.32;6.07;;;;;;;33.68;35.52;95108.94;5009333;28;20076;-88
2021/07/27 10:47:02;;;;;;;7.38;6.25;;;;;;;34.21;35.65;95100.66;5008864;28;20425;-88
2021/07/27 10:49:28;;;;;;;13.40;6.78;;;;;;;34.38;35.24;95099.88;4976363;28;20029;-88
2021/07/27 10:51:54;;;;;;;10.30;6.20;;;;;;;33.07;35.78;95104.38;4992886;28;20474;-82
2021/07/27 10:54:32;;;;;;;13.00;9.32;;;;;;;34.03;34.20;95095.56;4992657;28;20454;-85
2021/07/27 10:57:02;;;;;;;7.65;6.75;;;;;;;33.38;33.82;95102.50;5009260;28;20102;-85
2021/07/27 10:59:32;;;;;;;6.18;5.47;;;;;;;32.87;35.17;95086.91;5026509;28;20029;-79
2021/07/27 11:01:58;;;;;;;11.15;6.20;;;;;;;33.00;34.48;95084.44;4991913;28;20053;-84
2021/07/27 11:04:27;;;;;;;9.55;6.43;;;;;;;33.64;35.36;95086.47;5008891;28;20033;-81
2021/07/27 11:06:53;;;;;;;13.13;6.80;;;;;;;34.14;34.08;95086.88;4991368;28;20029;-78
2021/07/27 11:09:18;;;;;;;16.63;6.00;;;;;;;34.49;34.59;95084.97;5008947;28;20035;-81
2021/07/27 11:11:48;;;;;;;12.73;7.38;;;;;;;34.68;34.58;95082.00;4991573;28;20056;-80
2021/07/27 11:14:21;;;;;;;15.45;6.32;;;;;;;34.82;34.16;95078.00;5008459;28;20026;-80
2021/07/27 11:16:46;;;;;;;9.82;6.03;;;;;;;34.63;33.00;95074.06;5007452;28;20426;-81
2021/07/27 11:19:25;;;;;;;9.50;6.35;;;;;;;34.71;35.88;95078.66;5008170;28;20029;-82
2021/07/27 11:21:51;;;;;;;13.38;7.40;;;;;;;34.84;34.11;95070.38;5013460;28;20550;-81
2021/07/27 11:24:17;;;;;;;13.30;6.85;;;;;;;34.32;33.75;95060.78;5011239;28;20064;-85
2021/07/27 11:26:47;;;;;;;11.02;6.10;;;;;;;34.38;31.76;95063.00;5012888;28;20030;-80
2021/07/27 11:29:13;;;;;;;12.93;6.63;;;;;;;34.40;33.11;95065.38;5011879;28;20391;-85
2021/07/27 11:31:49;;;;;;;12.70;6.40;;;;;;;34.45;33.59;95056.34;5011647;28;20116;-80
2021/07/27 11:34:30;;;;;;;12.90;6.97;;;;;;;34.83;34.07;95058.06;5010593;28;20034;-81
2021/07/27 11:36:57;;;;;;;13.75;7.00;;;;;;;34.85;32.40;95061.19;4974530;28;20038;-79
2021/07/27 11:39:22;;;;;;;15.30;7.22;;;;;;;35.10;33.76;95058.75;5006122;28;20035;-79
2021/07/27 11:42:00;;;;;;;16.80;7.32;;;;;;;34.82;31.89;95052.97;5000312;28;20030;-80
2021/07/27 11:44:26;;;;;;;15.77;7.35;;;;;;;35.16;32.93;95063.66;4992222;28;20036;-80
2021/07/27 11:46:52;;;;;;;15.80;6.80;;;;;;;34.91;30.33;95059.91;5010178;28;20506;-79
2021/07/27 11:49:17;;;;;;;15.65;6.95;;;;;;;34.15;31.00;95058.09;5027858;28;20072;-79
2021/07/27 11:51:42;;;;;;;12.23;7.05;;;;;;;35.03;31.08;95055.78;5011810;28;20375;-79
2021/07/27 11:54:08;;;;;;;9.70;6.85;;;;;;;35.14;31.79;95057.00;5010981;28;20033;-79
2021/07/27 11:56:46;;;;;;;14.02;6.90;;;;;;;35.27;31.09;95047.94;4992039;28;20060;-79
2021/07/27 11:59:12;;;;;;;18.38;6.95;;;;;;;34.99;31.57;95046.75;4991953;28;20026;-80
2021/07/27 12:01:41;;;;;;;14.65;7.03;;;;;;;35.38;28.88;95041.06;4991376;28;20427;-80
2021/07/27 12:04:07;;;;;;;16.27;6.82;;;;;;;34.93;31.16;95035.38;5007255;28;20034;-78
2021/07/27 12:06:32;;;;;;;16.30;6.45;;;;;;;35.33;32.99;95041.22;4991781;28;20048;-79
2021/07/27 12:09:00;;;;;;;19.50;6.55;;;;;;;35.32;30.94;95039.66;5007251;28;20742;-78
2021/07/27 12:11:25;;;;;;;13.70;6.82;;;;;;;35.29;30.47;95029.50;4991430;28;20457;-79
2021/07/27 12:13:51;;;;;;;16.33;6.03;;;;;;;35.38;31.50;95035.69;5008640;28;20034;-78
2021/07/27 12:16:16;;;;;;;12.80;6.03;;;;;;;35.58;32.03;95026.84;4974543;28;20507;-79
2021/07/27 12:18:42;;;;;;;15.73;6.78;;;;;;;35.49;30.79;95027.97;4991709;28;20022;-80
2021/07/27 12:21:07;;;;;;;17.05;7.60;;;;;;;35.70;32.27;95026.16;5008369;28;20077;-79
2021/07/27 12:23:33;;;;;;;13.50;6.68;;;;;;;35.64;31.67;95017.44;4991305;28;20646;-77
2021/07/27 12:25:58;;;;;;;13.30;6.45;;;;;;;35.26;30.62;95022.06;5007552;28;20030;-76
2021/07/27 12:28:24;;;;;;;11.95;6.95;;;;;;;35.30;31.66;95020.31;4990862;28;20104;-78
2021/07/27 12:30:49;;;;;;;15.30;5.95;;;;;;;35.83;30.89;95023.22;4990454;28;20099;-79
2021/07/27 12:33:15;;;;;;;15.52;6.75;;;;;;;35.82;30.07;95015.44;4990705;28;20025;-77
2021/07/27 12:35:41;;;;;;;19.45;7.35;;;;;;;35.23;29.33;95017.34;5009174;28;20018;-77
2021/07/27 12:38:06;;;;;;;19.40;7.03;;;;;;;35.25;29.41;95012.44;4990161;28;20796;-81
2021/07/27 12:40:32;;;;;;;15.07;6.80;;;;;;;35.20;29.77;95008.00;5007468;28;20441;-80
2021/07/27 12:42:58;;;;;;;19.15;6.32;;;;;;;35.25;28.70;95009.75;4990497;28;20103;-81
2021/07/27 12:45:23;;;;;;;15.65;6.45;;;;;;;35.23;28.80;95003.88;4971321;28;20412;-81
2021/07/27 12:47:49;;;;;;;10.98;5.63;;;;;;;35.06;29.10;95002.03;4951677;28;20554;-80
2021/07/27 12:50:14;;;;;;;14.85;6.35;;;;;;;35.33;29.59;95000.81;4952224;28;20023;-81
2021/07/27 12:52:40;;;;;;;18.30;6.05;;;;;;;35.55;28.74;94995.13;4936605;28;20472;-82
2021/07/27 12:55:05;;;;;;;15.80;6.20;;;;;;;35.68;28.59;94998.72;4968804;28;20480;-82
2021/07/27 12:57:32;;;;;;;17.35;7.15;;;;;;;35.71;27.97;94995.34;4967700;28;20138;-82
2021/07/27 13:00:00;;;;;;;15.30;5.63;;;;;;;35.51;29.34;94996.13;4935964;28;20030;-87
2021/07/27 13:02:25;;;;;;;20.88;6.57;;;;;;;35.30;28.92;94991.47;4951902;28;20050;-83
2021/07/27 13:04:52;;;;;;;20.95;6.47;;;;;;;35.22;28.63;94995.00;4969638;28;20034;-84
2021/07/27 13:07:17;;;;;;;13.75;6.15;;;;;;;35.19;27.63;94989.47;4988180;28;20494;-82
2021/07/27 13:09:42;;;;;;;15.13;6.22;;;;;;;34.99;27.87;94980.19;4970327;28;20447;-84
2021/07/27 13:12:08;;;;;;;19.70;6.80;;;;;;;34.80;27.29;94982.50;4969668;28;20145;-85
2021/07/27 13:14:33;;;;;;;15.88;6.50;;;;;;;35.06;27.37;94983.19;4970810;28;20043;-82
2021/07/27 13:17:02;;;;;;;19.48;6.65;;;;;;;35.33;28.64;94985.41;4985759;28;20507;-84
2021/07/27 13:19:28;;;;;;;12.80;5.50;;;;;;;35.42;28.56;94979.97;4970281;28;20133;-84
2021/07/27 13:21:53;;;;;;;11.75;6.25;;;;;;;35.40;28.82;94985.69;4985366;28;20475;-82
2021/07/27 13:24:19;;;;;;;22.48;6.82;;;;;;;35.48;27.94;94986.78;4970589;28;20061;-83
2021/07/27 13:26:44;;;;;;;17.23;6.30;;;;;;;35.23;28.96;94976.91;4987212;28;20019;-82
2021/07/27 13:35:54;;;;;;;17.88;6.22;;;;;;;35.48;29.75;94970.59;4988010;28;20096;-84
2021/07/27 13:38:19;;;;;;;21.30;6.90;;;;;;;35.72;29.91;94969.97;4953173;28;20014;-82
2021/07/27 13:40:45;;;;;;;21.45;6.00;;;;;;;35.69;28.66;94966.03;4987712;28;20081;-83
2021/07/27 13:43:11;;;;;;;19.45;6.70;;;;;;;35.43;28.87;94966.19;4952551;28;20038;-83
2021/07/27 13:45:37;;;;;;;18.90;6.68;;;;;;;35.28;29.52;94966.75;4970182;28;20034;-84
2021/07/27 13:48:03;;;;;;;16.05;6.70;;;;;;;35.23;29.30;94971.53;4968973;28;20038;-82
2021/07/27 13:50:30;;;;;;;16.47;7.23;;;;;;;35.03;29.32;94962.28;4986155;28;20058;-84
2021/07/27 13:52:55;;;;;;;15.88;6.88;;;;;;;35.09;29.17;94965.56;4969926;28;20026;-84
2021/07/27 13:55:21;;;;;;;15.13;6.22;;;;;;;35.05;29.39;94964.63;4968999;28;20033;-82
2021/07/27 13:57:47;;;;;;;18.10;6.40;;;;;;;34.92;27.72;94969.13;4985923;28;20077;-82
2021/07/27 14:00:13;;;;;;;17.17;6.63;;;;;;;34.90;28.64;94963.28;4952404;28;20030;-83
2021/07/27 14:02:39;;;;;;;17.33;6.88;;;;;;;34.96;29.33;94956.59;4969549;28;20042;-82
2021/07/27 14:05:05;;;;;;;19.15;7.00;;;;;;;35.03;29.97;94948.81;4984742;28;20061;-82
2021/07/27 14:07:33;;;;;;;17.17;6.60;;;;;;;35.08;30.14;94950.50;4970137;28;20022;-85
2021/07/27 14:09:59;;;;;;;12.27;6.30;;;;;;;35.01;29.47;94945.63;4969427;28;20061;-81
2021/07/27 14:12:25;;;;;;;14.80;6.50;;;;;;;35.13;30.01;94948.44;4985346;28;20037;-83
2021/07/27 14:14:50;;;;;;;15.18;6.40;;;;;;;35.15;29.41;94945.44;4969559;28;20041;-78
2021/07/27 14:17:16;;;;;;;15.23;6.55;;;;;;;35.00;28.53;94941.34;5014680;28;20081;-79
2021/07/27 14:19:41;;;;;;;12.73;6.88;;;;;;;35.11;29.38;94947.19;4969626;28;20030;-83
2021/07/27 14:22:07;;;;;;;14.90;6.93;;;;;;;35.15;28.69;94937.34;4999183;28;20037;-83
2021/07/27 14:24:32;;;;;;;14.20;6.90;;;;;;;35.16;28.99;94936.25;5026012;28;20022;-81
2021/07/27 14:26:59;;;;;;;15.45;6.68;;;;;;;35.26;29.28;94946.63;5007237;28;20460;-81
2021/07/27 14:29:25;;;;;;;16.35;7.03;;;;;;;35.36;30.20;94948.94;5008813;28;20115;-82
2021/07/27 14:31:51;;;;;;;21.02;6.88;;;;;;;35.21;29.77;94934.13;5008094;28;20022;-79
2021/07/27 14:34:16;;;;;;;15.50;6.82;;;;;;;35.09;29.64;94933.22;5025451;28;20029;-82
2021/07/27 14:36:41;;;;;;;17.50;6.88;;;;;;;35.08;29.95;94929.75;5008433;28;20632;-80
2021/07/27 14:39:07;;;;;;;16.65;6.50;;;;;;;35.08;30.29;94928.94;5003883;28;20018;-81
2021/07/27 14:41:32;;;;;;;22.38;7.90;;;;;;;35.21;29.91;94931.44;5006371;28;20029;-81
2021/07/27 14:43:59;;;;;;;16.75;6.72;;;;;;;35.04;29.99;94928.00;4987126;28;20467;-83
2021/07/27 14:46:25;;;;;;;16.60;6.53;;;;;;;34.94;29.43;94929.16;4988718;28;20061;-80
2021/07/27 14:48:50;;;;;;;12.85;6.30;;;;;;;34.86;28.33;94921.94;4987528;28;20506;-81
2021/07/27 14:51:16;;;;;;;17.48;6.20;;;;;;;34.92;29.29;94918.75;4988164;28;20411;-81
2021/07/27 14:53:41;;;;;;;15.55;6.75;;;;;;;34.85;29.18;94921.16;4972985;28;20033;-83
2021/07/27 14:56:07;;;;;;;16.90;6.28;;;;;;;34.86;29.75;94920.03;4997644;28;20040;-81
2021/07/27 14:58:35;;;;;;;16.80;7.10;;;;;;;34.88;30.96;94917.00;4992598;28;20026;-82
2021/07/27 15:01:01;;;;;;;14.43;6.30;;;;;;;34.77;30.05;94915.81;5008543;28;20056;-82
2021/07/27 15:03:26;;;;;;;12.32;6.32;;;;;;;34.85;31.01;94913.06;4999226;28;20026;-81
2021/07/27 15:05:52;;;;;;;19.25;6.47;;;;;;;34.58;29.73;94916.16;5027345;28;20088;-81
2021/07/27 15:08:17;;;;;;;21.38;7.35;;;;;;;34.60;30.63;94915.84;5028243;28;20025;-81
2021/07/27 15:10:43;;;;;;;19.33;5.97;;;;;;;34.67;29.81;94908.09;5027683;28;20048;-81
2021/07/27 15:13:08;;;;;;;21.92;6.70;;;;;;;34.60;30.87;94918.53;5011162;28;20029;-83
2021/07/27 15:15:34;;;;;;;20.25;6.80;;;;;;;34.52;31.18;94912.06;4992336;28;20026;-83
2021/07/27 15:17:59;;;;;;;19.80;7.35;;;;;;;34.39;31.82;94910.38;5008294;28;20411;-81
2021/07/27 15:20:25;;;;;;;17.25;7.25;;;;;;;34.40;35.84;94911.94;4992307;28;20033;-82
2021/07/27 15:22:50;;;;;;;15.43;6.65;;;;;;;34.27;37.25;94904.88;4990661;28;20119;-83
2021/07/27 15:25:15;;;;;;;13.48;6.32;;;;;;;34.21;37.91;94912.31;4975628;28;20033;-82
2021/07/27 15:27:41;;;;;;;12.65;6.38;;;;;;;34.08;38.10;94907.09;4991097;28;20026;-79
2021/07/27 15:30:08;;;;;;;15.38;6.53;;;;;;;34.05;38.31;94905.06;4992085;28;20480;-86
2021/07/27 15:32:34;;;;;;;16.50;6.80;;;;;;;33.89;38.57;94905.56;5008785;28;20451;-85
2021/07/27 15:35:00;;;;;;;15.40;7.10;;;;;;;33.78;39.73;94901.59;4975014;28;20026;-85
2021/07/27 15:37:25;;;;;;;16.75;7.72;;;;;;;33.63;39.29;94902.09;4986322;28;20029;-81
2021/07/27 15:39:51;;;;;;;16.48;8.98;;;;;;;33.64;40.16;94901.00;5012230;28;20104;-85
2021/07/27 15:42:16;;;;;;;15.27;7.88;;;;;;;33.57;41.32;94900.66;4978966;28;20021;-87
2021/07/27 15:44:42;;;;;;;16.50;8.05;;;;;;;33.44;40.88;94904.28;4994685;28;20037;-91
2021/07/27 15:47:11;;;;;;;13.90;7.28;;;;;;;33.31;40.89;94906.00;4992941;28;20026;-85
2021/07/27 15:49:36;;;;;;;11.98;7.47;;;;;;;33.23;40.98;94898.72;4994113;28;20025;-86
2021/07/27 15:52:02;;;;;;;15.05;10.00;;;;;;;33.21;41.24;94902.81;5000372;28;21435;-86
2021/07/27 15:54:34;;;;;;;17.98;10.07;;;;;;;33.10;41.44;94905.03;4996251;28;20018;-90
2021/07/27 15:56:59;;;;;;;114.00;72.72;;;;;;;33.04;42.78;94911.63;4982028;28;20037;-85
2021/07/27 15:59:25;;;;;;;23.42;16.95;;;;;;;32.87;42.85;94908.91;4982251;28;20038;-88
2021/07/27 16:01:50;;;;;;;17.48;8.23;;;;;;;32.69;42.81;94899.19;4965226;28;20046;-90
2021/07/27 16:04:15;;;;;;;16.90;8.27;;;;;;;32.57;43.34;94912.41;4976339;28;20029;-85
2021/07/27 16:06:41;;;;;;;26.38;18.10;;;;;;;32.51;44.65;94914.44;4969273;28;20030;-86
2021/07/27 16:09:07;;;;;;;33.72;23.02;;;;;;;32.45;44.21;94914.88;4939750;28;20108;-88
2021/07/27 16:11:32;;;;;;;26.02;14.73;;;;;;;32.35;43.97;94915.94;4972280;28;20030;-85
2021/07/27 16:13:58;;;;;;;25.05;13.80;;;;;;;32.20;43.98;94917.13;4970960;28;20080;-87
2021/07/27 16:16:23;;;;;;;20.25;9.75;;;;;;;32.13;44.88;94914.09;4943645;28;20526;-85
2021/07/27 16:18:49;;;;;;;33.30;18.17;;;;;;;32.09;45.32;94918.47;4988314;28;20112;-86
2021/07/27 16:21:15;;;;;;;59.83;27.80;;;;;;;31.95;45.63;94911.59;4991908;28;20117;-84
2021/07/27 16:23:40;;;;;;;30.40;14.18;;;;;;;31.82;45.29;94919.34;4975100;28;20022;-89
2021/07/27 16:26:06;;;;;;;18.98;8.52;;;;;;;31.68;45.52;94924.00;4974966;28;20089;-88
2021/07/27 16:28:32;;;;;;;30.83;17.70;;;;;;;31.51;46.10;94926.53;4974530;28;20018;-89
2021/07/27 16:30:57;;;;;;;37.22;19.52;;;;;;;31.53;46.56;94928.94;4945920;28;20042;-88
2021/07/27 16:33:22;;;;;;;14.93;7.53;;;;;;;31.40;46.13;94932.41;4991542;28;20164;-88